Main page
METAR-TAF:

METAR-TAF

Airports :

Poplar Bluff Municipal Airport

Poplar Bluff, Missouri, United States

latitude: 36-46-14N, longitude: 090-19-20W, elevation: 328 ft

Current weather observation

The report was made 28 minutes ago, at 21:53 UTC
Wind 8 mph from the South/Southwest
Temperature 57°F
Humidity 82%
Pressure 29.81 in. Hg
Visibility: 10 miles
Few clouds at a height of 4100 ft

METAR: KPOF 012153Z AUTO 21007KT 10SM FEW041 14/11 A2981 RMK AO2 SLP094 T01440106

Time: 16:21 (22:21 UTC)


TAF: missing

Weather observations and forecasts of more than 4000 airports (METAR and TAF reports).

The available stations are represented by yellow and red dots on the map.

Hover mouse over dot to see the name of the station.

Then click to see weather observations and forecasts.

To change the map : click on the green buttons with a black cross to zoom in, on the green button with a dash to zoom out, or on the green arrows for adjacent maps.


METAR-TAF: